createdAt,value
2024-04-30T00:00:31.380Z,47.86
2024-04-30T00:01:31.331Z,48.75
2024-04-30T00:02:31.311Z,51.03
2024-04-30T00:03:31.349Z,49.47
2024-04-30T00:04:31.504Z,48.97
2024-04-30T00:05:31.305Z,49.54
2024-04-30T00:06:31.284Z,50.04
2024-04-30T00:07:31.363Z,52.47
2024-04-30T00:08:31.270Z,52.51
2024-04-30T00:09:31.249Z,56.80
2024-04-30T00:10:31.339Z,51.57
2024-04-30T00:11:31.278Z,50.22
2024-04-30T00:12:31.226Z,50.15
2024-04-30T00:13:31.294Z,50.15
2024-04-30T00:14:31.215Z,49.19
2024-04-30T00:15:31.206Z,48.55
2024-04-30T00:16:31.328Z,48.33
2024-04-30T00:17:31.218Z,49.06
2024-04-30T00:18:31.224Z,54.70
2024-04-30T00:19:31.268Z,50.47
2024-04-30T00:20:31.209Z,47.67
2024-04-30T00:21:31.185Z,46.85
2024-04-30T00:22:31.228Z,46.42
2024-04-30T00:23:31.142Z,46.54
2024-04-30T00:24:31.407Z,49.01
2024-04-30T00:25:31.273Z,56.66
2024-04-30T00:26:31.192Z,50.40
2024-04-30T00:27:31.121Z,47.56
2024-04-30T00:28:31.152Z,46.68
2024-04-30T00:29:31.216Z,52.62
2024-04-30T00:30:31.093Z,53.16
2024-04-30T00:31:31.166Z,49.15
2024-04-30T00:32:31.135Z,45.48
2024-04-30T00:33:31.080Z,46.38
2024-04-30T00:34:31.168Z,47.11
2024-04-30T00:35:31.098Z,47.35
2024-04-30T00:36:31.072Z,50.89
2024-04-30T00:37:31.080Z,51.85
2024-04-30T00:38:31.039Z,54.52
2024-04-30T00:39:31.035Z,48.70
2024-04-30T00:40:31.078Z,54.69
2024-04-30T00:41:31.042Z,51.64
2024-04-30T00:42:31.065Z,44.51
2024-04-30T00:43:31.070Z,44.47
2024-04-30T00:44:31.033Z,51.67
2024-04-30T00:45:31.015Z,57.33
2024-04-30T00:46:31.145Z,49.97
2024-04-30T00:47:31.010Z,44.94
2024-04-30T00:48:31.098Z,42.69
2024-04-30T00:49:31.082Z,45.49
2024-04-30T00:50:31.045Z,52.62
2024-04-30T00:51:31.235Z,53.50
2024-04-30T00:52:31.206Z,45.35
2024-04-30T00:53:31.328Z,45.84
2024-04-30T00:54:31.166Z,46.93
2024-04-30T00:55:31.003Z,48.01
2024-04-30T00:56:30.912Z,50.51
2024-04-30T00:57:30.909Z,49.57
2024-04-30T00:58:30.979Z,46.99
2024-04-30T00:59:30.880Z,47.08
2024-04-30T01:00:30.907Z,50.47
2024-04-30T01:01:31.030Z,53.87
2024-04-30T01:02:30.924Z,47.78
2024-04-30T01:03:30.961Z,48.37
2024-04-30T01:04:30.930Z,53.22
2024-04-30T01:05:30.846Z,50.74
2024-04-30T01:06:30.837Z,47.63
2024-04-30T01:07:31.113Z,47.36
2024-04-30T01:08:30.877Z,49.97
2024-04-30T01:09:30.823Z,48.00
2024-04-30T01:10:30.874Z,47.15
2024-04-30T01:11:30.858Z,46.23
2024-04-30T01:12:30.798Z,48.62
2024-04-30T01:13:31.646Z,54.46
2024-04-30T01:14:30.842Z,48.18
2024-04-30T01:15:30.776Z,45.94
2024-04-30T01:16:30.834Z,46.78
2024-04-30T01:17:30.888Z,54.39
2024-04-30T01:18:30.770Z,46.86
2024-04-30T01:19:30.847Z,44.62
2024-04-30T01:20:30.737Z,45.03
2024-04-30T01:21:30.739Z,45.76
2024-04-30T01:22:30.854Z,44.98
2024-04-30T01:23:30.805Z,44.66
2024-04-30T01:24:30.753Z,43.81
2024-04-30T01:25:30.839Z,46.02
2024-04-30T01:26:30.739Z,47.62
2024-04-30T01:27:30.723Z,45.68
2024-04-30T01:28:30.823Z,46.35
2024-04-30T01:29:30.690Z,46.95
2024-04-30T01:30:30.732Z,50.62
2024-04-30T01:31:30.731Z,54.87
2024-04-30T01:32:30.726Z,47.66
2024-04-30T01:33:30.704Z,45.15
2024-04-30T01:34:30.774Z,44.14
2024-04-30T01:35:30.681Z,46.62
2024-04-30T01:36:30.638Z,44.46
2024-04-30T01:37:30.706Z,43.10
2024-04-30T01:38:30.719Z,44.90
2024-04-30T01:39:30.612Z,44.09
2024-04-30T01:40:30.664Z,46.06
2024-04-30T01:41:30.680Z,54.58
2024-04-30T01:42:30.638Z,50.13
2024-04-30T01:43:31.048Z,42.55
2024-04-30T01:44:30.582Z,44.98
2024-04-30T01:45:30.641Z,45.63
2024-04-30T01:46:30.660Z,47.86
2024-04-30T01:47:30.670Z,45.90
2024-04-30T01:48:30.740Z,45.86
2024-04-30T01:49:30.704Z,51.01
2024-04-30T01:50:30.608Z,56.95
2024-04-30T01:51:30.531Z,49.61
2024-04-30T01:52:30.633Z,48.78
2024-04-30T01:53:30.579Z,48.02
2024-04-30T01:54:30.540Z,49.54
2024-04-30T01:55:30.656Z,51.30
2024-04-30T01:56:30.515Z,50.12
2024-04-30T01:57:30.537Z,50.47
2024-04-30T01:58:30.775Z,54.50
2024-04-30T01:59:30.481Z,53.87
2024-04-30T02:00:30.527Z,49.07
2024-04-30T02:01:30.470Z,46.25
2024-04-30T02:02:30.535Z,47.10
2024-04-30T02:03:30.602Z,47.62
2024-04-30T02:04:38.560Z,46.10
2024-04-30T02:05:31.662Z,47.07
2024-04-30T02:06:30.437Z,48.58
2024-04-30T02:07:30.541Z,57.99
2024-04-30T02:08:30.474Z,56.28
2024-04-30T02:09:31.393Z,53.87
2024-04-30T02:10:30.461Z,47.12
2024-04-30T02:11:30.455Z,45.09
2024-04-30T02:12:30.466Z,44.95
2024-04-30T02:13:30.466Z,51.26
2024-04-30T02:14:30.466Z,56.45
2024-04-30T02:15:30.488Z,50.63
2024-04-30T02:16:30.368Z,48.52
2024-04-30T02:17:30.571Z,48.65
2024-04-30T02:18:30.465Z,46.77
2024-04-30T02:19:30.578Z,47.23
2024-04-30T02:20:30.332Z,50.37
2024-04-30T02:21:30.427Z,50.05
2024-04-30T02:22:30.515Z,45.63
2024-04-30T02:23:30.378Z,48.28
2024-04-30T02:24:30.387Z,55.04
2024-04-30T02:25:30.364Z,53.51
2024-04-30T02:26:30.408Z,46.86
2024-04-30T02:27:30.409Z,48.17
2024-04-30T02:28:30.541Z,49.74
2024-04-30T02:29:30.371Z,57.15
2024-04-30T02:30:30.340Z,51.61
2024-04-30T02:31:30.360Z,47.45
2024-04-30T02:32:30.452Z,47.43
2024-04-30T02:33:30.303Z,47.66
2024-04-30T02:34:30.325Z,50.30
2024-04-30T02:35:30.292Z,55.99
2024-04-30T02:36:30.342Z,58.57
2024-04-30T02:37:30.248Z,45.47
2024-04-30T02:38:30.250Z,46.41
2024-04-30T02:39:30.236Z,47.05
2024-04-30T02:40:30.228Z,48.18
2024-04-30T02:41:30.211Z,53.82
2024-04-30T02:42:30.178Z,54.33
2024-04-30T02:43:30.741Z,50.75
2024-04-30T02:44:30.249Z,49.36
2024-04-30T02:45:30.183Z,49.01
2024-04-30T02:46:30.304Z,52.16
2024-04-30T02:47:30.286Z,50.47
2024-04-30T02:48:30.226Z,49.98
2024-04-30T02:49:30.359Z,49.88
2024-04-30T02:50:30.160Z,48.69
2024-04-30T02:51:30.115Z,48.05
2024-04-30T02:52:30.235Z,52.85
2024-04-30T02:53:30.121Z,52.54
2024-04-30T02:54:30.089Z,53.90
2024-04-30T02:55:30.222Z,52.70
2024-04-30T02:56:30.103Z,53.51
2024-04-30T02:57:30.079Z,50.85
2024-04-30T02:58:30.165Z,51.15
2024-04-30T02:59:30.051Z,53.74
2024-04-30T03:00:30.109Z,56.46
2024-04-30T03:01:30.069Z,55.82
2024-04-30T03:02:30.047Z,53.88
2024-04-30T03:03:30.140Z,53.42
2024-04-30T03:04:30.421Z,54.15
2024-04-30T03:05:30.024Z,54.49
2024-04-30T03:06:30.094Z,53.75
2024-04-30T03:07:30.051Z,52.39
2024-04-30T03:08:29.996Z,52.23
2024-04-30T03:09:30.001Z,52.63
2024-04-30T03:10:30.022Z,53.13
2024-04-30T03:11:30.027Z,54.89
2024-04-30T03:12:29.996Z,52.78
2024-04-30T03:13:30.006Z,52.71
2024-04-30T03:14:29.955Z,54.67
2024-04-30T03:15:29.968Z,55.39
2024-04-30T03:16:30.009Z,60.60
2024-04-30T03:17:30.285Z,58.86
2024-04-30T03:18:29.942Z,55.32
2024-04-30T03:19:30.047Z,52.61
2024-04-30T03:20:29.941Z,51.65
2024-04-30T03:21:29.903Z,55.87
2024-04-30T03:22:29.963Z,55.36
2024-04-30T03:23:29.950Z,51.90
2024-04-30T03:24:29.887Z,52.59
2024-04-30T03:25:29.902Z,51.58
2024-04-30T03:26:29.901Z,52.35
2024-04-30T03:27:30.944Z,52.22
2024-04-30T03:28:29.924Z,52.73
2024-04-30T03:29:29.856Z,55.04
2024-04-30T03:30:29.851Z,53.05
2024-04-30T03:31:29.988Z,51.32
2024-04-30T03:32:29.937Z,56.81
2024-04-30T03:33:29.995Z,52.76
2024-04-30T03:34:29.903Z,52.74
2024-04-30T03:35:29.820Z,54.92
2024-04-30T03:36:29.795Z,52.58
2024-04-30T03:37:29.839Z,56.76
2024-04-30T03:38:29.797Z,57.97
2024-04-30T03:39:29.800Z,50.73
2024-04-30T03:40:29.909Z,51.89
2024-04-30T03:41:29.779Z,50.51
2024-04-30T03:42:29.758Z,50.48
2024-04-30T03:43:29.775Z,54.06
2024-04-30T03:44:29.766Z,52.67
2024-04-30T03:45:29.735Z,54.02
2024-04-30T03:46:29.796Z,56.80
2024-04-30T03:47:29.807Z,51.87
2024-04-30T03:48:29.754Z,53.13
2024-04-30T03:49:29.766Z,52.42
2024-04-30T03:50:29.699Z,51.89
2024-04-30T03:51:29.692Z,52.38
2024-04-30T03:52:29.749Z,53.03
2024-04-30T03:53:29.721Z,55.37
2024-04-30T03:54:29.670Z,51.77
2024-04-30T03:55:29.723Z,53.11
2024-04-30T03:56:29.678Z,53.56
2024-04-30T03:57:29.656Z,55.81
2024-04-30T03:58:29.723Z,58.61
2024-04-30T03:59:29.659Z,55.65
2024-04-30T04:00:29.695Z,56.45
2024-04-30T04:01:29.644Z,55.64
2024-04-30T04:02:29.644Z,57.57
2024-04-30T04:03:29.691Z,55.86
2024-04-30T04:04:29.758Z,52.10
2024-04-30T04:05:29.593Z,50.75
2024-04-30T04:06:29.591Z,53.66
2024-04-30T04:07:29.635Z,55.11
2024-04-30T04:08:29.597Z,55.13
2024-04-30T04:09:29.582Z,50.81
2024-04-30T04:10:29.643Z,48.94
2024-04-30T04:11:29.621Z,49.27
2024-04-30T04:12:29.563Z,50.12
2024-04-30T04:13:29.617Z,50.61
2024-04-30T04:14:29.546Z,51.82
2024-04-30T04:15:29.553Z,52.65
2024-04-30T04:16:29.604Z,48.96
2024-04-30T04:17:29.630Z,48.81
2024-04-30T04:18:29.597Z,47.44
2024-04-30T04:19:29.547Z,47.76
2024-04-30T04:20:29.516Z,47.65
2024-04-30T04:21:29.535Z,47.62
2024-04-30T04:22:29.532Z,47.20
2024-04-30T04:23:29.537Z,47.72
2024-04-30T04:24:29.480Z,47.90
2024-04-30T04:25:29.597Z,48.55
2024-04-30T04:26:29.475Z,49.18
2024-04-30T04:27:29.448Z,49.16
2024-04-30T04:28:29.874Z,50.47
2024-04-30T04:29:29.455Z,50.35
2024-04-30T04:30:29.461Z,48.21
2024-04-30T04:31:29.455Z,48.28
2024-04-30T04:32:29.496Z,47.94
2024-04-30T04:33:29.411Z,50.98
2024-04-30T04:34:29.576Z,58.01
2024-04-30T04:35:29.461Z,49.62
2024-04-30T04:36:29.421Z,47.78
2024-04-30T04:37:29.473Z,47.76
2024-04-30T04:38:29.414Z,48.55
2024-04-30T04:39:29.383Z,53.98
2024-04-30T04:40:29.440Z,50.69
2024-04-30T04:41:29.366Z,48.21
2024-04-30T04:42:29.379Z,48.85
2024-04-30T04:43:29.353Z,51.90
2024-04-30T04:44:29.353Z,49.13
2024-04-30T04:45:29.355Z,47.07
2024-04-30T04:46:29.395Z,47.49
2024-04-30T04:47:29.385Z,52.07
2024-04-30T04:48:29.519Z,59.08
2024-04-30T04:49:29.326Z,52.01
2024-04-30T04:50:29.294Z,49.45
2024-04-30T04:51:29.295Z,47.96
2024-04-30T04:52:29.393Z,49.28
2024-04-30T04:53:29.304Z,53.69
2024-04-30T04:54:29.264Z,56.46
2024-04-30T04:55:29.301Z,48.97
2024-04-30T04:56:29.266Z,48.22
2024-04-30T04:57:29.275Z,47.96
2024-04-30T04:58:29.347Z,51.46
2024-04-30T04:59:29.270Z,54.02
2024-04-30T05:00:29.267Z,47.92
2024-04-30T05:01:29.287Z,47.63
2024-04-30T05:02:29.269Z,47.68
2024-04-30T05:03:29.251Z,47.81
2024-04-30T05:04:29.296Z,46.69
2024-04-30T05:05:29.187Z,46.55
2024-04-30T05:06:29.220Z,46.86
2024-04-30T05:07:29.231Z,47.29
2024-04-30T05:08:29.258Z,51.25
2024-04-30T05:09:29.153Z,48.01
2024-04-30T05:10:29.313Z,47.89
2024-04-30T05:11:29.206Z,47.68
2024-04-30T05:12:29.131Z,47.46
2024-04-30T05:13:29.186Z,47.01
2024-04-30T05:14:36.405Z,51.46
2024-04-30T05:15:29.115Z,48.04
2024-04-30T05:16:29.183Z,48.95
2024-04-30T05:17:29.284Z,47.90
2024-04-30T05:18:29.128Z,47.12
2024-04-30T05:19:29.143Z,46.87
2024-04-30T05:20:29.085Z,49.25
2024-04-30T05:21:29.099Z,54.13
2024-04-30T05:22:29.112Z,50.76
2024-04-30T05:23:29.104Z,47.97
2024-04-30T05:24:29.079Z,48.03
2024-04-30T05:25:29.329Z,48.57
2024-04-30T05:26:29.050Z,47.39
2024-04-30T05:27:29.036Z,47.58
2024-04-30T05:28:29.217Z,46.75
2024-04-30T05:29:29.054Z,47.22
2024-04-30T05:30:29.015Z,47.03
2024-04-30T05:31:29.033Z,49.36
2024-04-30T05:32:29.114Z,49.15
2024-04-30T05:33:29.586Z,49.48
2024-04-30T05:34:29.141Z,49.55
2024-04-30T05:35:28.988Z,51.23
2024-04-30T05:36:28.972Z,54.65
2024-04-30T05:37:29.009Z,50.97
2024-04-30T05:38:28.990Z,51.48
2024-04-30T05:39:28.994Z,53.53
2024-04-30T05:40:28.997Z,49.85
2024-04-30T05:41:29.023Z,52.92
2024-04-30T05:42:28.929Z,50.36
2024-04-30T05:43:28.984Z,50.75
2024-04-30T05:44:28.924Z,51.26
2024-04-30T05:45:28.908Z,51.53
2024-04-30T05:46:29.012Z,51.56
2024-04-30T05:47:28.901Z,50.97
2024-04-30T05:48:28.917Z,52.87
2024-04-30T05:49:28.907Z,51.66
2024-04-30T05:50:28.892Z,53.74
2024-04-30T05:51:28.868Z,54.03
2024-04-30T05:52:28.911Z,52.08
2024-04-30T05:53:28.880Z,52.77
2024-04-30T05:54:28.856Z,53.15
2024-04-30T05:55:28.862Z,53.58
2024-04-30T05:56:28.851Z,51.99
2024-04-30T05:57:28.852Z,51.51
2024-04-30T05:58:28.891Z,51.21
2024-04-30T05:59:28.824Z,50.66
2024-04-30T06:00:29.277Z,51.30
2024-04-30T06:01:28.821Z,52.19
2024-04-30T06:02:28.784Z,52.74
2024-04-30T06:03:28.850Z,53.23
2024-04-30T06:04:28.860Z,52.20
2024-04-30T06:05:29.680Z,55.05
2024-04-30T06:06:28.762Z,52.55
2024-04-30T06:07:28.846Z,54.04
2024-04-30T06:08:28.751Z,53.67
2024-04-30T06:09:28.774Z,54.48
2024-04-30T06:10:28.793Z,53.45
2024-04-30T06:11:28.797Z,51.36
2024-04-30T06:12:28.749Z,50.58
2024-04-30T06:13:28.741Z,48.97
2024-04-30T06:14:28.728Z,48.31
2024-04-30T06:15:28.695Z,47.78
2024-04-30T06:16:28.760Z,48.98
2024-04-30T06:17:28.728Z,48.01
2024-04-30T06:18:28.724Z,49.64
2024-04-30T06:19:28.730Z,50.53
2024-04-30T06:20:28.660Z,47.85
2024-04-30T06:21:31.774Z,47.64
2024-04-30T06:22:29.690Z,48.00
2024-04-30T06:23:28.654Z,50.00
2024-04-30T06:24:28.656Z,50.31
2024-04-30T06:25:28.654Z,51.17
2024-04-30T06:26:28.634Z,54.28
2024-04-30T06:27:28.744Z,50.81
2024-04-30T06:28:30.282Z,53.35
2024-04-30T06:29:28.731Z,48.96
2024-04-30T06:30:28.623Z,48.79
2024-04-30T06:31:28.666Z,46.21
2024-04-30T06:32:28.594Z,48.18
2024-04-30T06:33:28.733Z,47.85
2024-04-30T06:34:28.625Z,46.01
2024-04-30T06:35:28.592Z,44.80
2024-04-30T06:36:28.558Z,45.95
2024-04-30T06:37:28.596Z,50.11
2024-04-30T06:38:28.539Z,46.38
2024-04-30T06:39:28.580Z,44.23
2024-04-30T06:40:28.548Z,45.48
2024-04-30T06:41:28.526Z,48.98
2024-04-30T06:42:28.540Z,47.74
2024-04-30T06:43:28.541Z,47.64
2024-04-30T06:44:28.567Z,51.19
2024-04-30T06:45:28.495Z,46.48
2024-04-30T06:46:28.551Z,50.17
2024-04-30T06:47:28.520Z,46.45
2024-04-30T06:48:28.530Z,48.39
2024-04-30T06:49:28.535Z,47.99
2024-04-30T06:50:28.536Z,51.05
2024-04-30T06:51:28.465Z,49.55
2024-04-30T06:52:28.510Z,47.97
2024-04-30T06:53:28.442Z,50.33
2024-04-30T06:54:28.473Z,46.22
2024-04-30T06:55:28.501Z,48.57
2024-04-30T06:56:28.418Z,47.36
2024-04-30T06:57:28.429Z,50.34
2024-04-30T06:58:28.452Z,46.27
2024-04-30T06:59:28.417Z,49.52
2024-04-30T07:00:28.412Z,53.80
2024-04-30T07:01:28.450Z,50.18
2024-04-30T07:02:28.387Z,56.32
2024-04-30T07:03:28.372Z,54.83
2024-04-30T07:04:28.433Z,52.23
2024-04-30T07:05:28.457Z,47.60
2024-04-30T07:06:28.420Z,53.90
2024-04-30T07:07:28.369Z,46.97
2024-04-30T07:08:28.364Z,48.89
2024-04-30T07:09:28.321Z,45.17
2024-04-30T07:10:28.357Z,42.93
2024-04-30T07:11:28.354Z,42.20
2024-04-30T07:12:28.337Z,42.36
2024-04-30T07:13:28.329Z,42.79
2024-04-30T07:14:28.295Z,41.22
2024-04-30T07:15:28.282Z,41.39
2024-04-30T07:16:28.349Z,42.03
2024-04-30T07:17:28.523Z,41.23
2024-04-30T07:18:28.449Z,48.15
2024-04-30T07:19:28.284Z,43.86
2024-04-30T07:20:28.247Z,41.96
2024-04-30T07:21:28.241Z,41.58
2024-04-30T07:22:28.279Z,46.15
2024-04-30T07:23:28.223Z,40.91
2024-04-30T07:24:28.220Z,40.63
2024-04-30T07:25:29.180Z,40.51
2024-04-30T07:26:28.207Z,43.53
2024-04-30T07:27:28.225Z,41.52
2024-04-30T07:28:28.239Z,39.60
2024-04-30T07:29:28.212Z,40.18
2024-04-30T07:30:28.208Z,41.87
2024-04-30T07:31:28.275Z,42.07
2024-04-30T07:32:28.255Z,44.10
2024-04-30T07:33:28.316Z,40.99
2024-04-30T07:34:28.409Z,40.60
2024-04-30T07:35:28.144Z,42.26
2024-04-30T07:36:28.136Z,40.05
2024-04-30T07:37:28.171Z,39.01
2024-04-30T07:38:28.126Z,38.50
2024-04-30T07:39:28.114Z,39.21
2024-04-30T07:40:28.133Z,39.44
2024-04-30T07:41:28.110Z,46.36
2024-04-30T07:42:28.126Z,45.13
2024-04-30T07:43:28.173Z,42.17
2024-04-30T07:44:28.101Z,40.55
2024-04-30T07:45:28.112Z,39.49
2024-04-30T07:46:28.208Z,40.53
2024-04-30T07:47:28.157Z,42.87
2024-04-30T07:48:28.357Z,42.16
2024-04-30T07:49:28.073Z,42.28
2024-04-30T07:50:28.060Z,42.00
2024-04-30T07:51:28.037Z,44.37
2024-04-30T07:52:28.073Z,39.13
2024-04-30T07:53:28.111Z,37.38
2024-04-30T07:54:28.020Z,46.11
2024-04-30T07:55:28.063Z,46.17
2024-04-30T07:56:28.015Z,38.21
2024-04-30T07:57:28.002Z,45.59
2024-04-30T07:58:28.029Z,49.18
2024-04-30T07:59:27.987Z,48.33
2024-04-30T08:00:28.094Z,51.27
2024-04-30T08:01:27.999Z,51.66
2024-04-30T08:02:28.012Z,44.88
2024-04-30T08:03:28.018Z,52.87
2024-04-30T08:04:28.035Z,54.07
2024-04-30T08:05:28.651Z,61.62
2024-04-30T08:06:27.946Z,51.81
2024-04-30T08:07:27.995Z,48.96
2024-04-30T08:08:27.955Z,55.91
2024-04-30T08:09:27.921Z,54.14
2024-04-30T08:10:27.979Z,38.98
2024-04-30T08:11:27.930Z,38.70
2024-04-30T08:12:27.905Z,41.21
2024-04-30T08:13:27.915Z,42.63
2024-04-30T08:14:27.915Z,40.77
2024-04-30T08:15:27.925Z,40.39
2024-04-30T08:16:27.964Z,40.60
2024-04-30T08:17:27.978Z,43.39
2024-04-30T08:18:27.890Z,43.29
2024-04-30T08:19:27.936Z,43.17
2024-04-30T08:20:27.935Z,43.91
2024-04-30T08:21:27.886Z,44.95
2024-04-30T08:22:27.878Z,42.61
2024-04-30T08:23:27.852Z,41.68
2024-04-30T08:24:28.137Z,45.79
2024-04-30T08:25:27.852Z,48.41
2024-04-30T08:26:27.811Z,41.79
2024-04-30T08:27:27.819Z,40.18
2024-04-30T08:28:27.936Z,39.49
2024-04-30T08:29:27.848Z,40.84
2024-04-30T08:30:27.783Z,39.22
2024-04-30T08:31:27.799Z,46.49
2024-04-30T08:32:27.916Z,52.01
2024-04-30T08:33:27.874Z,39.78
2024-04-30T08:34:27.844Z,39.78
2024-04-30T08:35:27.761Z,40.10
2024-04-30T08:36:30.443Z,41.70
2024-04-30T08:37:29.262Z,39.98
2024-04-30T08:38:27.751Z,39.49
2024-04-30T08:39:27.776Z,38.07
2024-04-30T08:40:27.736Z,38.59
2024-04-30T08:41:27.713Z,38.18
2024-04-30T08:42:27.702Z,43.17
2024-04-30T08:43:27.735Z,38.91
2024-04-30T08:44:27.747Z,37.66
2024-04-30T08:45:27.680Z,38.14
2024-04-30T08:46:27.734Z,38.95
2024-04-30T08:47:27.838Z,40.68
2024-04-30T08:48:28.579Z,49.15
2024-04-30T08:49:33.946Z,38.95
2024-04-30T08:50:28.688Z,42.30
2024-04-30T08:51:27.632Z,38.31
2024-04-30T08:52:27.665Z,37.64
2024-04-30T08:53:27.626Z,43.50
2024-04-30T08:54:27.638Z,43.83
2024-04-30T08:55:27.643Z,40.40
2024-04-30T08:56:27.595Z,37.15
2024-04-30T08:57:27.614Z,37.87
2024-04-30T08:58:27.609Z,44.88
2024-04-30T08:59:27.597Z,38.94
2024-04-30T09:00:27.581Z,37.79
2024-04-30T09:01:27.611Z,39.02
2024-04-30T09:02:27.572Z,38.87
2024-04-30T09:03:27.661Z,37.88
2024-04-30T09:04:28.295Z,37.20
2024-04-30T09:05:27.539Z,39.26
2024-04-30T09:06:27.524Z,41.78
2024-04-30T09:07:27.550Z,38.75
2024-04-30T09:08:27.711Z,41.29
2024-04-30T09:09:27.502Z,38.73
2024-04-30T09:10:27.544Z,40.05
2024-04-30T09:11:27.581Z,36.80
2024-04-30T09:12:27.738Z,36.50
2024-04-30T09:13:27.543Z,37.12
2024-04-30T09:14:27.495Z,37.01
2024-04-30T09:15:27.477Z,44.87
2024-04-30T09:16:27.645Z,39.52
2024-04-30T09:17:27.503Z,41.80
2024-04-30T09:18:27.466Z,40.91
2024-04-30T09:19:27.536Z,39.04
2024-04-30T09:20:27.419Z,41.29
2024-04-30T09:21:27.428Z,39.27
2024-04-30T09:22:27.530Z,42.96
2024-04-30T09:23:27.413Z,39.12
2024-04-30T09:24:27.660Z,39.69
2024-04-30T09:25:27.432Z,36.86
2024-04-30T09:26:27.462Z,46.63
2024-04-30T09:27:27.409Z,40.27
2024-04-30T09:28:27.455Z,43.93
2024-04-30T09:29:27.436Z,38.21
2024-04-30T09:30:27.679Z,40.39
2024-04-30T09:31:27.365Z,44.88
2024-04-30T09:32:27.420Z,47.26
2024-04-30T09:33:27.402Z,41.08
2024-04-30T09:34:27.337Z,40.58
2024-04-30T09:35:27.300Z,39.51
2024-04-30T09:36:27.326Z,41.23
2024-04-30T09:37:27.344Z,44.41
2024-04-30T09:38:27.317Z,43.99
2024-04-30T09:39:27.291Z,37.46
2024-04-30T09:40:27.327Z,39.50
2024-04-30T09:41:27.262Z,42.12
2024-04-30T09:42:27.426Z,45.47
2024-04-30T09:43:27.292Z,41.18
2024-04-30T09:44:27.240Z,41.13
2024-04-30T09:45:27.236Z,46.50
2024-04-30T09:46:27.308Z,42.51
2024-04-30T09:47:27.311Z,51.00
2024-04-30T09:48:27.250Z,45.27
2024-04-30T09:49:27.284Z,43.45
2024-04-30T09:50:27.206Z,41.43
2024-04-30T09:51:27.204Z,42.63
2024-04-30T09:52:27.222Z,41.40
2024-04-30T09:53:27.309Z,39.09
2024-04-30T09:54:28.483Z,37.26
2024-04-30T09:55:27.338Z,52.16
2024-04-30T09:56:27.182Z,52.05
2024-04-30T09:57:27.172Z,50.74
2024-04-30T09:58:27.209Z,52.98
2024-04-30T09:59:27.155Z,53.77
2024-04-30T10:00:28.874Z,45.03
2024-04-30T10:01:27.215Z,45.11
2024-04-30T10:02:27.125Z,48.62
2024-04-30T10:03:27.145Z,47.01
2024-04-30T10:04:27.166Z,41.64
2024-04-30T10:05:27.180Z,39.55
2024-04-30T10:06:27.103Z,38.97
2024-04-30T10:07:27.150Z,37.01
2024-04-30T10:08:27.128Z,37.74
2024-04-30T10:09:27.092Z,38.21
2024-04-30T10:10:27.182Z,37.15
2024-04-30T10:11:27.084Z,39.40
2024-04-30T10:12:29.454Z,46.22
2024-04-30T10:13:27.138Z,41.98
2024-04-30T10:14:27.074Z,38.23
2024-04-30T10:15:27.065Z,37.60
2024-04-30T10:16:27.092Z,42.96
2024-04-30T10:17:27.164Z,43.47
2024-04-30T10:18:27.038Z,38.53
2024-04-30T10:19:27.106Z,37.98
2024-04-30T10:20:27.030Z,37.53
2024-04-30T10:21:27.030Z,38.00
2024-04-30T10:22:27.076Z,37.40
2024-04-30T10:23:26.996Z,36.16
2024-04-30T10:24:27.020Z,35.62
2024-04-30T10:25:27.023Z,37.53
2024-04-30T10:26:27.001Z,35.62
2024-04-30T10:27:26.979Z,35.01
2024-04-30T10:28:27.013Z,35.52
2024-04-30T10:29:26.977Z,36.85
2024-04-30T10:30:26.956Z,36.33
2024-04-30T10:31:26.982Z,37.27
2024-04-30T10:32:26.967Z,38.23
2024-04-30T10:33:26.951Z,38.46
2024-04-30T10:34:27.055Z,38.38
2024-04-30T10:35:26.967Z,39.00
2024-04-30T10:36:26.906Z,39.84
2024-04-30T10:37:26.924Z,44.36
2024-04-30T10:38:27.053Z,40.25
2024-04-30T10:39:27.483Z,38.40
2024-04-30T10:40:26.871Z,36.38
2024-04-30T10:41:26.877Z,35.73
2024-04-30T10:42:26.868Z,35.40
2024-04-30T10:43:26.900Z,36.22
2024-04-30T10:44:26.906Z,38.05
2024-04-30T10:45:26.851Z,40.31
2024-04-30T10:46:26.866Z,42.77
2024-04-30T10:47:26.901Z,45.52
2024-04-30T10:48:26.884Z,37.82
2024-04-30T10:49:26.841Z,37.17
2024-04-30T10:50:27.212Z,38.04
2024-04-30T10:51:26.892Z,36.14
2024-04-30T10:52:26.848Z,37.08
2024-04-30T10:53:26.800Z,44.45
2024-04-30T10:54:26.812Z,37.51
2024-04-30T10:55:26.803Z,43.98
2024-04-30T10:56:26.782Z,36.84
2024-04-30T10:57:26.777Z,36.52
2024-04-30T10:58:26.783Z,36.13
2024-04-30T10:59:26.889Z,45.25
2024-04-30T11:00:26.833Z,37.13
2024-04-30T11:01:26.911Z,37.20
2024-04-30T11:02:26.741Z,35.79
2024-04-30T11:03:26.811Z,35.13
2024-04-30T11:04:27.912Z,35.50
2024-04-30T11:05:26.893Z,39.57
2024-04-30T11:06:26.737Z,35.80
2024-04-30T11:07:26.716Z,35.87
2024-04-30T11:08:26.750Z,37.45
2024-04-30T11:09:28.662Z,37.15
2024-04-30T11:10:26.702Z,37.40
2024-04-30T11:11:26.693Z,37.08
2024-04-30T11:12:26.674Z,36.93
2024-04-30T11:13:26.764Z,36.43
2024-04-30T11:14:26.666Z,45.41
2024-04-30T11:15:26.653Z,37.45
2024-04-30T11:16:26.687Z,36.53
2024-04-30T11:17:27.049Z,35.74
2024-04-30T11:18:26.777Z,41.49
2024-04-30T11:19:26.646Z,39.51
2024-04-30T11:20:26.675Z,53.58
2024-04-30T11:21:26.611Z,38.56
2024-04-30T11:22:26.617Z,37.60
2024-04-30T11:23:26.638Z,36.07
2024-04-30T11:24:26.608Z,41.09
2024-04-30T11:25:26.612Z,35.97
2024-04-30T11:26:26.654Z,38.13
2024-04-30T11:27:26.576Z,36.45
2024-04-30T11:28:26.620Z,43.03
2024-04-30T11:30:26.554Z,49.64
2024-04-30T11:31:26.584Z,37.65
2024-04-30T11:32:26.618Z,36.51
2024-04-30T11:33:29.846Z,33.44
2024-04-30T11:34:26.616Z,33.73
2024-04-30T11:35:26.539Z,32.97
2024-04-30T11:36:26.529Z,34.31
2024-04-30T11:37:26.620Z,33.25
2024-04-30T11:38:26.609Z,33.08
2024-04-30T11:39:26.536Z,35.69
2024-04-30T11:40:26.538Z,35.19
2024-04-30T11:41:26.490Z,35.86
2024-04-30T11:42:31.273Z,35.30
2024-04-30T11:43:27.734Z,35.23
2024-04-30T11:44:26.470Z,37.13
2024-04-30T11:45:26.460Z,39.35
2024-04-30T11:46:26.502Z,37.08
2024-04-30T11:47:26.537Z,38.06
2024-04-30T11:48:29.599Z,42.42
2024-04-30T11:49:26.566Z,39.20
2024-04-30T11:50:26.431Z,38.47
2024-04-30T11:51:26.420Z,36.61
2024-04-30T11:52:26.466Z,37.02
2024-04-30T11:53:26.543Z,38.54
2024-04-30T11:54:26.434Z,37.82
2024-04-30T11:55:26.440Z,37.96
2024-04-30T11:56:26.511Z,37.94
2024-04-30T11:57:26.428Z,36.99
2024-04-30T11:58:26.461Z,40.51
2024-04-30T11:59:26.409Z,41.31
2024-04-30T12:00:26.381Z,36.56
2024-04-30T12:01:26.545Z,34.73
2024-04-30T12:02:26.398Z,36.08
2024-04-30T12:03:26.343Z,36.86
2024-04-30T12:04:26.648Z,34.99
2024-04-30T12:05:26.356Z,39.32
2024-04-30T12:06:26.399Z,40.44
2024-04-30T12:07:26.358Z,37.05
2024-04-30T12:08:26.323Z,37.64
2024-04-30T12:09:26.384Z,35.98
2024-04-30T12:10:26.339Z,36.06
2024-04-30T12:11:26.397Z,35.27
2024-04-30T12:12:26.304Z,37.34
2024-04-30T12:13:26.381Z,36.39
2024-04-30T12:14:26.304Z,35.35
2024-04-30T12:15:26.317Z,35.49
2024-04-30T12:16:26.385Z,36.26
2024-04-30T12:17:26.444Z,35.91
2024-04-30T12:18:26.309Z,39.23
2024-04-30T12:19:26.346Z,37.73
2024-04-30T12:20:26.283Z,33.88
2024-04-30T12:21:26.243Z,33.38
2024-04-30T12:22:26.319Z,33.69
2024-04-30T12:23:26.247Z,34.27
2024-04-30T12:24:26.279Z,34.54
2024-04-30T12:25:26.270Z,34.64
2024-04-30T12:26:26.246Z,39.97
2024-04-30T12:27:26.237Z,44.25
2024-04-30T12:28:26.243Z,43.70
2024-04-30T12:29:26.223Z,41.36
2024-04-30T12:30:26.192Z,48.78
2024-04-30T12:31:26.316Z,41.37
2024-04-30T12:32:26.230Z,39.65
2024-04-30T12:33:26.225Z,38.85
2024-04-30T12:34:26.225Z,37.25
2024-04-30T12:35:26.237Z,37.86
2024-04-30T12:36:26.262Z,38.42
2024-04-30T12:37:26.224Z,37.20
2024-04-30T12:38:26.155Z,37.54
2024-04-30T12:39:26.155Z,37.95
2024-04-30T12:40:26.169Z,42.18
2024-04-30T12:41:26.130Z,39.05
2024-04-30T12:42:26.204Z,39.09
2024-04-30T12:43:26.305Z,41.95
2024-04-30T12:44:26.139Z,41.29
2024-04-30T12:45:26.123Z,42.66
2024-04-30T12:46:26.103Z,50.39
2024-04-30T12:47:26.226Z,43.36
2024-04-30T12:48:26.106Z,49.41
2024-04-30T12:49:26.146Z,42.84
2024-04-30T12:50:26.055Z,42.19
2024-04-30T12:51:26.069Z,38.89
2024-04-30T12:52:26.096Z,40.94
2024-04-30T12:53:26.063Z,40.26